createdAt,value
2022-08-03T00:00:39.634Z,100856.59
2022-08-03T00:03:07.405Z,100853.38
2022-08-03T00:05:35.479Z,100854.16
2022-08-03T00:08:03.094Z,100850.50
2022-08-03T00:10:32.830Z,100837.66
2022-08-03T00:13:00.176Z,100848.47
2022-08-03T00:15:29.162Z,100836.69
2022-08-03T00:17:57.493Z,100839.19
2022-08-03T00:20:25.654Z,100853.69
2022-08-03T00:22:53.135Z,100856.84
2022-08-03T00:25:20.838Z,100849.47
2022-08-03T00:27:48.505Z,100855.16
2022-08-03T00:30:18.477Z,100851.06
2022-08-03T00:32:47.586Z,100851.34
2022-08-03T00:35:36.570Z,100850.16
2022-08-03T00:38:05.433Z,100845.69
2022-08-03T00:40:36.175Z,100841.31
2022-08-03T00:43:08.294Z,100857.78
2022-08-03T00:45:39.104Z,100851.94
2022-08-03T00:48:29.786Z,100846.81
2022-08-03T00:50:59.024Z,100848.88
2022-08-03T00:53:27.842Z,100846.63
2022-08-03T00:55:55.856Z,100841.91
2022-08-03T00:58:24.223Z,100849.16
2022-08-03T01:00:52.747Z,100841.50
2022-08-03T01:03:21.770Z,100844.06
2022-08-03T01:05:52.394Z,100845.53
2022-08-03T01:08:26.126Z,100846.41
2022-08-03T01:10:57.378Z,100846.72
2022-08-03T01:14:01.125Z,100842.75
2022-08-03T01:16:36.018Z,100844.78
2022-08-03T01:19:36.556Z,100832.75
2022-08-03T01:22:37.254Z,100833.31
2022-08-03T01:25:31.422Z,100838.94
2022-08-03T01:28:15.293Z,100843.97
2022-08-03T01:30:46.613Z,100848.94
2022-08-03T01:33:39.336Z,100839.47
2022-08-03T01:36:16.095Z,100840.34
2022-08-03T01:38:48.849Z,100845.09
2022-08-03T01:41:30.400Z,100831.44
2022-08-03T01:44:29.139Z,100825.28
2022-08-03T01:46:50.790Z,100834.78
2022-08-03T01:49:20.195Z,100819.16
2022-08-03T01:52:04.033Z,100824.03
2022-08-03T01:54:40.977Z,100827.78
2022-08-03T01:57:10.895Z,100821.66
2022-08-03T01:59:40.810Z,100818.69
2022-08-03T02:02:16.076Z,100821.06
2022-08-03T02:05:05.568Z,100818.03
2022-08-03T02:07:43.551Z,100828.63
2022-08-03T02:10:16.474Z,100827.25
2022-08-03T02:13:09.169Z,100830.88
2022-08-03T02:15:38.922Z,100823.91
2022-08-03T02:18:11.230Z,100820.72
2022-08-03T02:20:42.056Z,100826.69
2022-08-03T02:23:10.988Z,100830.47
2022-08-03T02:25:44.928Z,100813.88
2022-08-03T02:28:31.643Z,100828.25
2022-08-03T02:31:04.843Z,100819.63
2022-08-03T02:33:38.727Z,100815.72
2022-08-03T02:36:08.643Z,100813.63
2022-08-03T02:38:42.563Z,100809.69
2022-08-03T02:41:17.487Z,100813.88
2022-08-03T02:44:06.145Z,100812.50
2022-08-03T02:46:40.029Z,100812.78
2022-08-03T02:49:41.359Z,100813.75
2022-08-03T02:51:59.868Z,100810.13
2022-08-03T02:54:29.481Z,100810.28
2022-08-03T02:56:58.664Z,100794.22
2022-08-03T02:59:31.901Z,100805.78
2022-08-03T03:02:02.288Z,100806.94
2022-08-03T03:04:33.066Z,100809.97
2022-08-03T03:07:04.418Z,100808.88
2022-08-03T03:09:40.404Z,100812.78
2022-08-03T03:12:11.498Z,100817.78
2022-08-03T03:14:39.946Z,100817.53
2022-08-03T03:17:10.808Z,100808.34
2022-08-03T03:19:42.185Z,100814.47
2022-08-03T03:22:14.816Z,100810.84
2022-08-03T03:24:44.346Z,100806.47
2022-08-03T03:27:16.781Z,100818.31
2022-08-03T03:29:45.944Z,100802.16
2022-08-03T03:32:14.067Z,100816.44
2022-08-03T03:34:42.752Z,100815.44
2022-08-03T03:37:13.556Z,100806.06
2022-08-03T03:39:42.614Z,100822.22
2022-08-03T03:42:10.127Z,100808.31
2022-08-03T03:44:38.841Z,100827.97
2022-08-03T03:47:06.724Z,100818.91
2022-08-03T03:49:35.180Z,100819.91
2022-08-03T03:52:07.574Z,100819.75
2022-08-03T03:54:45.615Z,100813.03
2022-08-03T03:57:14.436Z,100819.47
2022-08-03T03:59:43.482Z,100822.56
2022-08-03T04:02:12.903Z,100819.75
2022-08-03T04:05:00.753Z,100811.66
2022-08-03T04:07:57.908Z,100809.97
2022-08-03T04:10:47.270Z,100816.69
2022-08-03T04:13:17.433Z,100821.44
2022-08-03T04:15:47.371Z,100818.38
2022-08-03T04:18:18.291Z,100821.69
2022-08-03T04:20:49.291Z,100824.19
2022-08-03T04:23:21.450Z,100829.50
2022-08-03T04:25:53.126Z,100823.66
2022-08-03T04:28:31.184Z,100821.69
2022-08-03T04:31:01.978Z,100816.66
2022-08-03T04:33:33.092Z,100822.78
2022-08-03T04:36:06.844Z,100830.91
2022-08-03T04:38:40.070Z,100818.50
2022-08-03T04:41:08.895Z,100832.03
2022-08-03T04:43:42.992Z,100836.09
2022-08-03T04:46:14.886Z,100835.22
2022-08-03T04:48:44.858Z,100835.94
2022-08-03T04:51:14.326Z,100840.25
2022-08-03T04:53:44.864Z,100839.00
2022-08-03T04:56:12.466Z,100852.09
2022-08-03T04:58:40.512Z,100853.22
2022-08-03T05:01:08.358Z,100846.50
2022-08-03T05:03:37.931Z,100851.66
2022-08-03T05:06:11.147Z,100845.50
2022-08-03T05:08:46.481Z,100846.75
2022-08-03T05:11:18.040Z,100846.91
2022-08-03T05:13:45.936Z,100843.22
2022-08-03T05:16:16.514Z,100849.25
2022-08-03T05:18:45.331Z,100855.53
2022-08-03T05:21:17.770Z,100850.91
2022-08-03T05:23:45.499Z,100850.06
2022-08-03T05:26:13.199Z,100853.44
2022-08-03T05:28:40.760Z,100852.88
2022-08-03T05:31:19.873Z,100847.88
2022-08-03T05:33:49.061Z,100851.47
2022-08-03T05:36:17.305Z,100851.59
2022-08-03T05:38:45.491Z,100858.97
2022-08-03T05:41:21.591Z,100852.69
2022-08-03T05:43:55.658Z,100850.84
2022-08-03T05:46:23.288Z,100845.53
2022-08-03T05:48:51.482Z,100854.28
2022-08-03T05:51:20.395Z,100854.38
2022-08-03T05:53:48.286Z,100848.78
2022-08-03T05:56:16.523Z,100849.47
2022-08-03T05:58:48.085Z,100859.50
2022-08-03T06:01:17.078Z,100856.34
2022-08-03T06:03:48.008Z,100858.16
2022-08-03T06:06:16.918Z,100866.44
2022-08-03T06:08:47.557Z,100858.09
2022-08-03T06:11:20.878Z,100858.19
2022-08-03T06:13:48.366Z,100871.78
2022-08-03T06:16:17.814Z,100876.78
2022-08-03T06:18:49.440Z,100879.53
2022-08-03T06:21:18.191Z,100879.47
2022-08-03T06:23:54.830Z,100874.28
2022-08-03T06:26:24.737Z,100888.06
2022-08-03T06:28:54.143Z,100893.09
2022-08-03T06:31:32.698Z,100885.47
2022-08-03T06:34:30.988Z,100892.56
2022-08-03T06:36:52.432Z,100891.31
2022-08-03T06:39:23.458Z,100893.47
2022-08-03T06:41:54.819Z,100887.81
2022-08-03T06:44:23.692Z,100898.88
2022-08-03T06:46:52.502Z,100889.22
2022-08-03T06:49:21.616Z,100896.94
2022-08-03T06:52:06.154Z,100896.59
2022-08-03T06:54:35.674Z,100902.44
2022-08-03T06:57:04.963Z,100903.97
2022-08-03T07:00:10.656Z,100892.69
2022-08-03T07:02:20.648Z,100900.53
2022-08-03T07:04:49.204Z,100904.38
2022-08-03T07:07:17.570Z,100909.72
2022-08-03T07:09:56.616Z,100903.72
2022-08-03T07:12:27.533Z,100906.03
2022-08-03T07:15:00.363Z,100901.69
2022-08-03T07:17:30.088Z,100908.09
2022-08-03T07:19:59.307Z,100909.13
2022-08-03T07:22:27.013Z,100908.41
2022-08-03T07:24:54.579Z,100901.28
2022-08-03T07:27:22.514Z,100902.34
2022-08-03T07:29:49.949Z,100901.03
2022-08-03T07:32:17.510Z,100901.22
2022-08-03T07:34:45.064Z,100906.84
2022-08-03T07:37:12.497Z,100903.00
2022-08-03T07:39:40.075Z,100905.69
2022-08-03T07:42:07.719Z,100899.94
2022-08-03T07:44:36.091Z,100895.88
2022-08-03T07:47:03.725Z,100894.78
2022-08-03T07:49:32.759Z,100907.38
2022-08-03T07:52:19.582Z,100908.09
2022-08-03T07:54:47.141Z,100914.50
2022-08-03T07:57:14.600Z,100906.81
2022-08-03T07:59:56.550Z,100912.66
2022-08-03T08:02:25.440Z,100903.56
2022-08-03T08:04:54.991Z,100912.44
2022-08-03T08:07:29.608Z,100901.84
2022-08-03T08:10:02.368Z,100903.56
2022-08-03T08:12:32.667Z,100910.19
2022-08-03T08:15:09.851Z,100911.75
2022-08-03T08:17:50.878Z,100904.31
2022-08-03T08:20:28.273Z,100917.09
2022-08-03T08:23:03.657Z,100917.72
2022-08-03T08:25:52.196Z,100906.31
2022-08-03T08:28:30.485Z,100920.50
2022-08-03T08:31:04.594Z,100899.84
2022-08-03T08:34:03.028Z,100901.50
2022-08-03T08:36:24.199Z,100903.84
2022-08-03T08:38:51.644Z,100907.28
2022-08-03T08:41:19.422Z,100906.84
2022-08-03T08:43:46.887Z,100907.94
2022-08-03T08:46:23.452Z,100895.53
2022-08-03T08:48:53.037Z,100908.16
2022-08-03T08:51:22.689Z,100909.38
2022-08-03T08:53:53.620Z,100909.44
2022-08-03T08:56:25.460Z,100906.00
2022-08-03T08:58:58.904Z,100896.88
2022-08-03T09:01:26.919Z,100901.66
2022-08-03T09:03:54.939Z,100908.31
2022-08-03T09:06:23.038Z,100911.25
2022-08-03T09:08:51.596Z,100905.94
2022-08-03T09:11:54.440Z,100902.59
2022-08-03T09:14:35.310Z,100898.19
2022-08-03T09:17:03.011Z,100902.81
2022-08-03T09:19:33.179Z,100898.38
2022-08-03T09:22:18.662Z,100895.63
2022-08-03T09:25:21.590Z,100903.31
2022-08-03T09:27:47.038Z,100885.50
2022-08-03T09:30:33.930Z,100893.88
2022-08-03T09:33:05.004Z,100890.97
2022-08-03T09:38:27.289Z,100889.69
2022-08-03T09:41:00.060Z,100887.00
2022-08-03T09:43:28.625Z,100894.63
2022-08-03T09:46:07.434Z,100885.00
2022-08-03T09:48:36.794Z,100880.47
2022-08-03T09:51:13.536Z,100884.31
2022-08-03T09:53:58.781Z,100872.31
2022-08-03T09:56:41.371Z,100887.22
2022-08-03T09:59:10.860Z,100876.91
2022-08-03T10:01:41.838Z,100880.66
2022-08-03T10:04:14.290Z,100882.13
2022-08-03T10:06:42.133Z,100879.84
2022-08-03T10:09:13.859Z,100875.06
2022-08-03T10:11:43.308Z,100872.38
2022-08-03T10:14:19.072Z,100870.28
2022-08-03T10:16:48.598Z,100864.50
2022-08-03T10:19:17.015Z,100859.09
2022-08-03T10:21:56.373Z,100865.31
2022-08-03T10:24:28.253Z,100865.31
2022-08-03T10:27:02.918Z,100859.13
2022-08-03T10:29:37.269Z,100854.53
2022-08-03T10:32:14.644Z,100847.91
2022-08-03T10:34:44.638Z,100852.66
2022-08-03T10:37:15.920Z,100840.84
2022-08-03T10:39:53.898Z,100852.03
2022-08-03T10:42:24.272Z,100843.09
2022-08-03T10:45:04.185Z,100835.41
2022-08-03T10:47:33.296Z,100837.84
2022-08-03T10:50:01.810Z,100840.78
2022-08-03T10:52:33.768Z,100836.75
2022-08-03T10:55:50.327Z,100829.06
2022-08-03T10:58:36.422Z,100831.94
2022-08-03T11:01:05.528Z,100822.81
2022-08-03T11:03:33.395Z,100823.47
2022-08-03T11:06:22.226Z,100824.81
2022-08-03T11:09:10.639Z,100817.69
2022-08-03T11:11:39.503Z,100820.59
2022-08-03T11:14:09.882Z,100818.28
2022-08-03T11:16:49.963Z,100821.41
2022-08-03T11:19:28.234Z,100812.03
2022-08-03T11:21:58.124Z,100820.38
2022-08-03T11:24:41.126Z,100817.78
2022-08-03T11:27:17.805Z,100816.38
2022-08-03T11:30:03.770Z,100811.19
2022-08-03T11:32:40.480Z,100812.84
2022-08-03T11:35:23.951Z,100806.19
2022-08-03T11:38:01.931Z,100812.19
2022-08-03T11:40:51.244Z,100799.44
2022-08-03T11:43:31.978Z,100804.72
2022-08-03T11:46:02.118Z,100800.13
2022-08-03T11:48:40.054Z,100811.50
2022-08-03T11:51:29.871Z,100797.31
2022-08-03T11:54:05.797Z,100786.44
2022-08-03T11:56:49.740Z,100788.28
2022-08-03T11:59:21.760Z,100786.97
2022-08-03T12:01:51.162Z,100780.63
2022-08-03T12:04:18.662Z,100781.13
2022-08-03T12:07:06.260Z,100786.94
2022-08-03T12:09:36.191Z,100783.13
2022-08-03T12:12:03.818Z,100778.16
2022-08-03T12:14:48.577Z,100773.81
2022-08-03T12:17:19.379Z,100762.50
2022-08-03T12:19:47.446Z,100769.22
2022-08-03T12:22:16.799Z,100775.03
2022-08-03T12:24:46.700Z,100770.63
2022-08-03T12:27:33.031Z,100766.34
2022-08-03T12:30:01.813Z,100761.78
2022-08-03T12:32:30.522Z,100760.03
2022-08-03T12:35:04.462Z,100771.13
2022-08-03T12:37:32.516Z,100766.75
2022-08-03T12:40:07.857Z,100771.88
2022-08-03T12:42:42.154Z,100762.88
2022-08-03T12:45:21.089Z,100764.00
2022-08-03T12:47:56.553Z,100770.09
2022-08-03T12:50:29.562Z,100766.28
2022-08-03T12:53:00.492Z,100761.25
2022-08-03T12:55:57.722Z,100772.03
2022-08-03T12:58:35.959Z,100769.94
2022-08-03T13:01:10.115Z,100755.66
2022-08-03T13:03:43.501Z,100758.13
2022-08-03T13:06:15.347Z,100755.78
2022-08-03T13:08:43.997Z,100744.53
2022-08-03T13:11:22.780Z,100754.03
2022-08-03T13:13:53.866Z,100751.53
2022-08-03T13:16:22.489Z,100749.53
2022-08-03T13:18:51.929Z,100743.69
2022-08-03T13:21:20.931Z,100746.28
2022-08-03T13:23:48.791Z,100741.16
2022-08-03T13:26:16.190Z,100743.88
2022-08-03T13:28:43.795Z,100738.53
2022-08-03T13:31:11.273Z,100731.81
2022-08-03T13:33:40.377Z,100734.25
2022-08-03T13:36:07.795Z,100731.53
2022-08-03T13:38:35.411Z,100735.59
2022-08-03T13:41:05.220Z,100733.59
2022-08-03T13:43:32.654Z,100728.13
2022-08-03T13:46:00.052Z,100731.13
2022-08-03T13:48:37.430Z,100726.34
2022-08-03T13:51:11.809Z,100705.16
2022-08-03T13:53:51.379Z,100720.03
2022-08-03T13:56:18.805Z,100718.91
2022-08-03T13:58:46.198Z,100717.41
2022-08-03T14:01:13.622Z,100706.75
2022-08-03T14:03:41.130Z,100709.13
2022-08-03T14:06:08.650Z,100703.84
2022-08-03T14:08:35.963Z,100708.00
2022-08-03T14:11:05.035Z,100699.34
2022-08-03T14:13:32.428Z,100696.66
2022-08-03T14:15:59.875Z,100693.88
2022-08-03T14:18:27.911Z,100687.69
2022-08-03T14:21:06.410Z,100681.56
2022-08-03T14:23:36.415Z,100686.94
2022-08-03T14:26:05.214Z,100683.78
2022-08-03T14:28:32.963Z,100679.34
2022-08-03T14:31:01.042Z,100677.59
2022-08-03T14:33:28.686Z,100679.59
2022-08-03T14:35:56.049Z,100677.31
2022-08-03T14:38:23.909Z,100677.38
2022-08-03T14:40:51.602Z,100674.09
2022-08-03T14:43:21.146Z,100670.91
2022-08-03T14:45:52.438Z,100667.16
2022-08-03T14:50:29.163Z,100674.38
2022-08-03T14:51:09.380Z,100673.31
2022-08-03T14:53:36.767Z,100666.69
2022-08-03T14:56:09.858Z,100662.16
2022-08-03T14:58:38.147Z,100657.72
2022-08-03T15:02:02.307Z,100653.66
2022-08-03T15:03:54.807Z,100653.38
2022-08-03T15:06:22.590Z,100655.94
2022-08-03T15:09:06.226Z,100646.97
2022-08-03T15:11:37.368Z,100653.03
2022-08-03T15:14:08.987Z,100649.03
2022-08-03T15:16:38.156Z,100642.66
2022-08-03T15:20:01.133Z,100640.19
2022-08-03T15:21:53.815Z,100645.88
2022-08-03T15:24:21.523Z,100635.38
2022-08-03T15:26:48.919Z,100633.41
2022-08-03T15:30:08.744Z,100632.22
2022-08-03T15:32:09.037Z,100632.59
2022-08-03T15:34:36.919Z,100633.97
2022-08-03T15:37:15.159Z,100631.03
2022-08-03T15:39:58.941Z,100631.53
2022-08-03T15:42:29.715Z,100624.63
2022-08-03T15:44:57.226Z,100618.78
2022-08-03T15:47:24.703Z,100621.81
2022-08-03T15:49:52.047Z,100612.41
2022-08-03T15:52:19.476Z,100613.78
2022-08-03T15:54:46.785Z,100611.53
2022-08-03T15:57:14.122Z,100604.47
2022-08-03T15:59:41.505Z,100608.09
2022-08-03T16:02:08.978Z,100597.72
2022-08-03T16:04:36.428Z,100602.25
2022-08-03T16:07:03.968Z,100608.38
2022-08-03T16:09:42.185Z,100602.91
2022-08-03T16:12:11.862Z,100604.53
2022-08-03T16:14:52.322Z,100604.31
2022-08-03T16:17:21.149Z,100597.72
2022-08-03T16:19:48.816Z,100594.44
2022-08-03T16:22:19.534Z,100595.34
2022-08-03T16:24:47.301Z,100593.69
2022-08-03T16:27:26.362Z,100592.50
2022-08-03T16:30:02.605Z,100593.50
2022-08-03T16:32:30.258Z,100589.06
2022-08-03T16:34:57.870Z,100589.91
2022-08-03T16:37:40.995Z,100595.28
2022-08-03T16:40:19.316Z,100599.72
2022-08-03T16:42:47.533Z,100594.91
2022-08-03T16:45:14.895Z,100585.81
2022-08-03T16:47:42.216Z,100588.03
2022-08-03T16:50:15.939Z,100589.75
2022-08-03T16:52:48.334Z,100591.97
2022-08-03T16:55:18.521Z,100590.47
2022-08-03T16:58:05.637Z,100585.34
2022-08-03T17:00:41.533Z,100590.56
2022-08-03T17:03:12.506Z,100590.00
2022-08-03T17:05:48.072Z,100590.72
2022-08-03T17:08:18.928Z,100586.38
2022-08-03T17:10:54.207Z,100583.31
2022-08-03T17:13:22.873Z,100576.88
2022-08-03T17:15:57.850Z,100580.81
2022-08-03T17:18:34.053Z,100585.06
2022-08-03T17:21:05.861Z,100587.78
2022-08-03T17:23:44.294Z,100591.53
2022-08-03T17:26:21.123Z,100590.00
2022-08-03T17:28:57.700Z,100589.22
2022-08-03T17:31:31.509Z,100594.09
2022-08-03T17:34:01.643Z,100602.97
2022-08-03T17:36:53.960Z,100603.09
2022-08-03T17:39:30.889Z,100596.91
2022-08-03T17:42:30.039Z,100599.38
2022-08-03T17:44:57.215Z,100597.31
2022-08-03T17:47:42.948Z,100607.97
2022-08-03T17:50:25.177Z,100606.63
2022-08-03T17:53:07.717Z,100610.88
2022-08-03T17:55:56.991Z,100608.44
2022-08-03T17:58:54.669Z,100611.00
2022-08-03T18:02:00.101Z,100618.84
2022-08-03T18:04:41.657Z,100623.47
2022-08-03T18:07:12.507Z,100628.09
2022-08-03T18:10:06.362Z,100624.53
2022-08-03T18:12:51.779Z,100621.03
2022-08-03T18:15:26.959Z,100620.66
2022-08-03T18:20:53.842Z,100626.03
2022-08-03T18:23:36.319Z,100614.47
2022-08-03T18:26:10.712Z,100628.94
2022-08-03T18:28:40.617Z,100630.59
2022-08-03T18:31:11.928Z,100629.78
2022-08-03T18:34:16.919Z,100626.44
2022-08-03T18:36:29.946Z,100631.00
2022-08-03T18:39:02.600Z,100627.81
2022-08-03T18:41:35.073Z,100625.75
2022-08-03T18:44:08.023Z,100628.03
2022-08-03T18:47:17.700Z,100637.50
2022-08-03T18:50:20.258Z,100637.28
2022-08-03T18:53:16.280Z,100631.63
2022-08-03T18:56:02.391Z,100636.22
2022-08-03T18:58:47.706Z,100634.63
2022-08-03T19:02:00.707Z,100628.50
2022-08-03T19:04:35.698Z,100638.94
2022-08-03T19:07:05.002Z,100645.94
2022-08-03T19:09:59.183Z,100648.22
2022-08-03T19:12:51.568Z,100644.97
2022-08-03T19:15:37.012Z,100656.22
2022-08-03T19:18:11.257Z,100656.19
2022-08-03T19:20:39.708Z,100655.31
2022-08-03T19:23:08.163Z,100652.38
2022-08-03T19:25:40.440Z,100661.88
2022-08-03T19:28:09.225Z,100659.50
2022-08-03T19:30:53.284Z,100668.97
2022-08-03T19:33:21.566Z,100665.78
2022-08-03T19:35:55.622Z,100671.22
2022-08-03T19:38:28.531Z,100677.09
2022-08-03T19:41:00.834Z,100677.69
2022-08-03T19:46:30.571Z,100675.38
2022-08-03T19:50:04.826Z,100682.91
2022-08-03T19:52:16.993Z,100683.00
2022-08-03T19:54:54.592Z,100677.69
2022-08-03T19:57:28.560Z,100683.44
2022-08-03T19:59:57.694Z,100693.31
2022-08-03T20:05:14.909Z,100702.53
2022-08-03T20:07:48.067Z,100706.88
2022-08-03T20:10:17.895Z,100706.31
2022-08-03T20:12:46.666Z,100702.72
2022-08-03T20:15:22.190Z,100698.56
2022-08-03T20:17:59.362Z,100698.56
2022-08-03T20:20:32.816Z,100713.03
2022-08-03T20:23:06.782Z,100701.16
2022-08-03T20:25:48.824Z,100701.88
2022-08-03T20:28:49.856Z,100703.81
2022-08-03T20:31:23.791Z,100708.59
2022-08-03T20:33:59.478Z,100709.63
2022-08-03T20:36:26.984Z,100704.72
2022-08-03T20:38:58.009Z,100712.16
2022-08-03T20:41:25.797Z,100714.06
2022-08-03T20:43:53.271Z,100706.66
2022-08-03T20:46:31.946Z,100705.00
2022-08-03T20:49:05.269Z,100712.50
2022-08-03T20:51:49.193Z,100715.78
2022-08-03T20:54:28.602Z,100699.09
2022-08-03T20:57:03.847Z,100710.00
2022-08-03T20:59:50.519Z,100723.81
2022-08-03T21:02:29.732Z,100716.47
2022-08-03T21:05:08.520Z,100716.69
2022-08-03T21:08:04.021Z,100715.00
2022-08-03T21:10:30.272Z,100721.31
2022-08-03T21:12:57.499Z,100630.56
2022-08-03T21:13:10.803Z,100671.94
2022-08-03T21:13:12.958Z,100695.97
2022-08-03T21:13:16.813Z,100724.75
2022-08-03T21:16:06.563Z,100722.25
2022-08-03T21:18:39.293Z,100723.72
2022-08-03T21:21:09.063Z,100734.03
2022-08-03T21:23:48.830Z,100722.97
2022-08-03T21:26:19.890Z,100730.81
2022-08-03T21:28:49.593Z,100732.25
2022-08-03T21:31:24.282Z,100732.41
2022-08-03T21:33:55.764Z,100732.41
2022-08-03T21:36:23.889Z,100737.94
2022-08-03T21:38:56.530Z,100740.44
2022-08-03T21:41:26.198Z,100737.31
2022-08-03T21:43:53.560Z,100739.41
2022-08-03T21:46:22.864Z,100738.72
2022-08-03T21:49:52.064Z,100746.31
2022-08-03T21:51:50.076Z,100742.97
2022-08-03T21:54:21.602Z,100748.03
2022-08-03T21:56:51.381Z,100749.25
2022-08-03T21:59:23.009Z,100751.38
2022-08-03T22:01:55.433Z,100750.44
2022-08-03T22:04:50.692Z,100749.00
2022-08-03T22:07:15.989Z,100750.91
2022-08-03T22:09:50.121Z,100753.41
2022-08-03T22:12:26.090Z,100755.09
2022-08-03T22:15:00.741Z,100765.78
2022-08-03T22:17:55.708Z,100760.09
2022-08-03T22:20:19.922Z,100760.47
2022-08-03T22:22:55.675Z,100758.50
2022-08-03T22:25:28.702Z,100763.25
2022-08-03T22:27:58.669Z,100760.94
2022-08-03T22:30:26.226Z,100769.78
2022-08-03T22:32:54.705Z,100777.94
2022-08-03T22:35:24.824Z,100771.56
2022-08-03T22:37:54.631Z,100780.41
2022-08-03T22:40:22.369Z,100775.28
2022-08-03T22:42:52.123Z,100772.97
2022-08-03T22:46:08.014Z,100776.44
2022-08-03T22:48:08.509Z,100776.94
2022-08-03T22:50:35.906Z,100779.63
2022-08-03T22:53:03.472Z,100773.94
2022-08-03T22:55:31.448Z,100782.28
2022-08-03T22:57:58.899Z,100782.28
2022-08-03T23:00:26.381Z,100791.28
2022-08-03T23:02:56.912Z,100790.31
2022-08-03T23:06:00.693Z,100789.97
2022-08-03T23:08:20.521Z,100792.63
2022-08-03T23:10:48.654Z,100790.47
2022-08-03T23:13:17.610Z,100787.31
2022-08-03T23:15:55.336Z,100788.97
2022-08-03T23:18:24.368Z,100791.63
2022-08-03T23:20:53.282Z,100791.28
2022-08-03T23:23:20.951Z,100795.97
2022-08-03T23:25:50.701Z,100793.31
2022-08-03T23:28:19.186Z,100798.66
2022-08-03T23:30:49.733Z,100795.00
2022-08-03T23:33:18.126Z,100798.34
2022-08-03T23:36:20.046Z,100801.31
2022-08-03T23:38:45.004Z,100790.84
2022-08-03T23:41:13.538Z,100797.00
2022-08-03T23:43:52.263Z,100792.00
2022-08-03T23:46:22.612Z,100790.63
2022-08-03T23:48:50.943Z,100788.97
2022-08-03T23:51:41.178Z,100792.28
2022-08-03T23:54:14.687Z,100790.78
2022-08-03T23:56:57.169Z,100790.13
2022-08-03T23:59:40.713Z,100779.19
